Time;durP1;ratioP1;P1;durP2;ratioP2;P2;SDS_P1;SDS_P2;PMS_P1;PMS_P2;Temp;Humidity;BMP_temperature;BMP_pressure;BME280_temperature;BME280_humidity;BME280_pressure;Samples;Min_cycle;Max_cycle;Signal;HPM_P1;HPM_P2
2023/03/02 00:02:32;;;;;;;213.10;80.60;;;;;;;0.97;56.36;99758.97;67505;1282;1016465;-60
2023/03/02 00:05:35;;;;;;;208.70;75.80;;;;;;;0.92;56.92;99756.77;67583;1281;1016310;-60
2023/03/02 00:08:38;;;;;;;192.20;76.10;;;;;;;0.84;57.33;99754.59;67550;1281;1016330;-59
2023/03/02 00:11:40;;;;;;;201.00;76.00;;;;;;;0.72;57.44;99753.96;67598;1281;1016174;-60
2023/03/02 00:14:43;;;;;;;193.90;76.20;;;;;;;0.61;57.54;99753.69;67602;1281;1016467;-60
2023/03/02 00:17:45;;;;;;;198.90;77.70;;;;;;;0.64;57.64;99757.11;67601;1281;1016037;-60
2023/03/02 00:20:48;;;;;;;225.50;79.80;;;;;;;0.74;57.61;99747.76;67569;1281;1016518;-60
2023/03/02 00:23:50;;;;;;;207.90;76.70;;;;;;;0.82;57.27;99746.33;67551;1282;1016139;-60
2023/03/02 00:26:53;;;;;;;;;;;;;;;0.73;57.04;99745.52;67585;1282;1016461;-60
2023/03/02 00:29:55;;;;;;;198.90;73.60;;;;;;;0.58;57.91;99740.27;67571;1281;1015735;-59
2023/03/02 00:32:58;;;;;;;184.50;70.00;;;;;;;0.59;57.89;99738.38;67518;1281;1016232;-59
2023/03/02 00:36:00;;;;;;;180.50;67.60;;;;;;;0.49;58.34;99737.56;67595;1281;1016409;-59
2023/03/02 00:39:03;;;;;;;177.70;69.10;;;;;;;0.56;58.22;99733.06;67573;1282;1016389;-60
2023/03/02 00:42:06;;;;;;;182.70;69.20;;;;;;;0.52;58.19;99733.60;67559;1281;1016333;-60
2023/03/02 00:45:08;;;;;;;163.40;62.60;;;;;;;0.58;58.05;99731.84;67562;1281;1016687;-59
2023/03/02 00:48:10;;;;;;;169.40;64.50;;;;;;;0.55;58.65;99731.69;67548;1282;1018159;-59
2023/03/02 00:51:13;;;;;;;150.10;62.20;;;;;;;0.55;57.97;99731.00;67602;1282;1016531;-60
2023/03/02 00:54:15;;;;;;;;;;;;;;;0.47;57.94;99736.39;67573;1282;1016086;-59
2023/03/02 00:57:18;;;;;;;135.50;50.60;;;;;;;0.24;58.51;99739.07;67546;1281;1016219;-60
2023/03/02 01:00:20;;;;;;;155.60;60.30;;;;;;;0.08;58.96;99739.64;67550;1282;1016333;-60
2023/03/02 01:03:23;;;;;;;168.10;60.40;;;;;;;0.20;59.37;99735.30;67591;1282;1016475;-59
2023/03/02 01:06:25;;;;;;;151.30;61.50;;;;;;;0.29;59.63;99733.02;67581;1282;1016558;-60
2023/03/02 01:09:28;;;;;;;154.10;61.60;;;;;;;0.52;58.77;99726.71;67528;1282;1019509;-60
2023/03/02 01:12:30;;;;;;;162.30;64.00;;;;;;;0.55;58.41;99725.66;67517;1282;1016481;-60
2023/03/02 01:15:33;;;;;;;;;;;;;;;0.36;58.79;99727.48;67589;1282;1016508;-60
2023/03/02 01:18:37;;;;;;;;;;;;;;;0.29;59.38;99728.03;67559;1281;1016193;-60
2023/03/02 01:21:40;;;;;;;145.60;57.30;;;;;;;0.53;58.68;99721.55;67547;1281;1016701;-60
2023/03/02 01:24:42;;;;;;;;;;;;;;;0.58;58.42;99723.23;67541;1282;1016818;-60
2023/03/02 01:27:45;;;;;;;153.70;55.60;;;;;;;0.44;58.66;99720.04;67584;1282;1016497;-60
2023/03/02 01:30:47;;;;;;;143.60;55.20;;;;;;;0.30;58.51;99723.04;67606;1281;1019388;-59
2023/03/02 01:33:50;;;;;;;;;;;;;;;0.16;58.57;99719.66;67607;1282;1016922;-60
2023/03/02 01:36:54;;;;;;;116.10;44.00;;;;;;;0.01;59.06;99715.94;67559;1281;1017398;-60
2023/03/02 01:39:57;;;;;;;136.60;54.10;;;;;;;-0.02;59.29;99712.16;67548;1282;1016449;-60
2023/03/02 01:43:01;;;;;;;171.80;63.10;;;;;;;-0.08;59.41;99706.16;67606;1282;1016093;-60
2023/03/02 01:46:03;;;;;;;189.10;72.30;;;;;;;-0.05;59.57;99702.55;67601;1282;1016182;-59
2023/03/02 01:49:06;;;;;;;161.70;62.00;;;;;;;0.08;59.41;99699.05;67599;1282;1016375;-60
2023/03/02 01:52:10;;;;;;;151.20;58.30;;;;;;;0.07;59.12;99700.10;67552;1282;1016572;-60
2023/03/02 01:55:13;;;;;;;150.70;57.70;;;;;;;0.09;59.34;99696.13;67588;1282;1017429;-60
2023/03/02 01:58:17;;;;;;;136.40;53.00;;;;;;;0.21;59.10;99692.29;67610;1282;1015972;-60
2023/03/02 02:01:20;;;;;;;147.10;59.90;;;;;;;0.22;58.67;99686.95;67575;1282;1016422;-60
2023/03/02 02:04:22;;;;;;;151.70;60.10;;;;;;;0.09;59.24;99681.69;67559;1282;1016279;-60
2023/03/02 02:07:26;;;;;;;143.30;55.50;;;;;;;0.17;59.06;99675.11;67541;1282;1016472;-60
2023/03/02 02:10:29;;;;;;;157.20;58.50;;;;;;;0.28;58.89;99677.80;67535;1282;1016473;-60
2023/03/02 02:13:32;;;;;;;147.60;58.60;;;;;;;0.26;58.51;99673.16;67569;1282;1016415;-59
2023/03/02 02:16:34;;;;;;;141.00;56.20;;;;;;;0.10;58.69;99673.27;67576;1282;1016378;-60
2023/03/02 02:19:37;;;;;;;141.30;56.90;;;;;;;0.07;59.02;99674.64;67563;1282;1016302;-60
2023/03/02 02:22:39;;;;;;;142.60;55.20;;;;;;;0.11;59.06;99674.29;67537;1282;1016345;-59
2023/03/02 02:25:41;;;;;;;145.90;59.90;;;;;;;0.04;59.23;99675.00;67568;1282;1016430;-59
2023/03/02 02:28:46;;;;;;;132.20;55.70;;;;;;;0.13;59.26;99673.07;67585;1282;1015982;-59
2023/03/02 02:31:48;;;;;;;132.70;53.80;;;;;;;0.17;58.76;99673.38;67574;1282;1016486;-59
2023/03/02 02:34:51;;;;;;;142.00;55.50;;;;;;;0.13;58.67;99674.09;67582;1281;1016367;-59
2023/03/02 02:37:53;;;;;;;145.30;57.20;;;;;;;0.04;58.93;99671.23;67563;1281;1016409;-59
2023/03/02 02:40:56;;;;;;;162.80;63.20;;;;;;;0.17;59.14;99670.13;67559;1282;1016393;-60
2023/03/02 02:43:58;;;;;;;142.20;55.10;;;;;;;0.27;58.87;99670.58;67599;1282;1016334;-59
2023/03/02 02:47:01;;;;;;;;;;;;;;;-0.02;58.93;99670.39;67589;1282;1018252;-60
2023/03/02 02:50:03;;;;;;;152.70;59.50;;;;;;;-0.11;58.92;99671.29;67550;1282;1016477;-59
2023/03/02 02:53:06;;;;;;;141.10;58.30;;;;;;;-0.13;59.21;99667.33;67548;1282;1016227;-60
2023/03/02 02:56:08;;;;;;;160.00;59.90;;;;;;;-0.17;59.37;99673.36;67578;1281;1016481;-59
2023/03/02 02:59:11;;;;;;;152.70;61.00;;;;;;;-0.20;59.25;99672.52;67593;1281;1016418;-60
2023/03/02 03:02:13;;;;;;;153.20;60.50;;;;;;;-0.17;59.14;99678.18;67576;1281;1016221;-59
2023/03/02 03:05:15;;;;;;;144.60;56.40;;;;;;;-0.09;59.38;99673.17;67557;1282;1016171;-61
2023/03/02 03:08:18;;;;;;;142.40;56.40;;;;;;;-0.10;59.45;99665.95;67519;1281;1016236;-60
2023/03/02 03:11:22;;;;;;;142.80;55.40;;;;;;;-0.08;59.13;99660.60;67586;1282;1016489;-59
2023/03/02 03:14:24;;;;;;;156.00;59.20;;;;;;;-0.07;59.35;99658.02;67595;1281;1016586;-59
2023/03/02 03:17:27;;;;;;;157.50;61.80;;;;;;;0.07;58.98;99650.57;67597;1281;1016284;-59
2023/03/02 03:20:29;;;;;;;151.90;61.10;;;;;;;0.09;59.08;99647.29;67600;1281;1016316;-59
2023/03/02 03:23:31;;;;;;;150.90;57.60;;;;;;;0.08;58.62;99644.71;67502;1281;1016405;-60
2023/03/02 03:26:34;;;;;;;155.50;59.60;;;;;;;0.02;58.65;99643.71;67563;1282;1016539;-60
2023/03/02 03:29:36;;;;;;;142.30;56.80;;;;;;;-0.01;58.62;99644.07;67555;1282;1016100;-59
2023/03/02 03:32:39;;;;;;;155.60;60.10;;;;;;;-0.04;58.63;99638.92;67595;1282;1016473;-60
2023/03/02 03:35:41;;;;;;;171.70;65.80;;;;;;;-0.01;58.74;99637.54;67554;1282;1016310;-59
2023/03/02 03:38:44;;;;;;;174.40;68.00;;;;;;;0.04;58.62;99635.95;67540;1281;1015728;-60
2023/03/02 03:41:46;;;;;;;161.10;63.30;;;;;;;-0.04;59.00;99637.38;67526;1281;1016217;-59
2023/03/02 03:44:49;;;;;;;156.00;63.70;;;;;;;-0.05;58.84;99638.59;67575;1281;1016441;-60
2023/03/02 03:47:51;;;;;;;;;;;;;;;-0.03;58.67;99639.60;67563;1281;1019450;-60
2023/03/02 03:50:54;;;;;;;147.80;58.80;;;;;;;0.01;58.70;99633.58;67564;1282;1015803;-60
2023/03/02 03:54:02;;;;;;;143.30;52.30;;;;;;;0.06;58.72;99628.39;67541;1282;1016482;-59
2023/03/02 03:57:05;;;;;;;137.70;53.50;;;;;;;0.03;58.23;99622.73;67552;1281;1016467;-59
2023/03/02 04:00:07;;;;;;;133.40;53.00;;;;;;;-0.18;58.48;99620.59;67587;1281;1016209;-60
2023/03/02 04:03:11;;;;;;;125.40;52.60;;;;;;;-0.19;58.87;99622.48;67581;1281;1016318;-60
2023/03/02 04:06:17;;;;;;;134.20;55.30;;;;;;;-0.08;58.46;99618.65;67584;1281;1016365;-59
2023/03/02 04:09:20;;;;;;;134.50;53.90;;;;;;;-0.08;58.26;99617.80;67526;1281;1016445;-60
2023/03/02 04:12:22;;;;;;;120.30;50.10;;;;;;;-0.18;58.30;99614.91;67561;1282;1016991;-60
2023/03/02 04:15:25;;;;;;;139.30;54.00;;;;;;;-0.25;58.65;99613.58;67572;1282;1016434;-59
2023/03/02 04:18:27;;;;;;;129.00;52.10;;;;;;;-0.35;58.68;99610.86;67583;1281;1016430;-61
2023/03/02 04:21:29;;;;;;;137.90;51.20;;;;;;;-0.44;58.70;99608.83;67575;1281;1016427;-59
2023/03/02 04:24:32;;;;;;;136.10;53.40;;;;;;;-0.40;58.85;99611.41;67538;1281;1016469;-60
2023/03/02 04:27:34;;;;;;;141.90;53.20;;;;;;;-0.46;58.97;99612.97;67529;1282;1017215;-60
2023/03/02 04:30:37;;;;;;;140.60;51.40;;;;;;;-0.43;59.11;99616.56;67560;1281;1016231;-60
2023/03/02 04:33:39;;;;;;;118.40;49.00;;;;;;;-0.36;58.68;99617.06;67566;1281;1016424;-61
2023/03/02 04:36:41;;;;;;;125.60;50.30;;;;;;;-0.43;58.47;99615.02;67596;1282;1017012;-60
2023/03/02 04:39:50;;;;;;;121.90;49.80;;;;;;;-0.54;58.80;99614.03;67558;1281;1016424;-60
2023/03/02 04:42:52;;;;;;;127.80;49.70;;;;;;;-0.55;59.14;99617.98;67523;1281;1016310;-60
2023/03/02 04:45:54;;;;;;;115.60;47.80;;;;;;;-0.47;58.76;99614.88;67539;1282;1017079;-60
2023/03/02 04:48:57;;;;;;;114.30;46.40;;;;;;;-0.53;59.06;99616.44;67577;1281;1016402;-60
2023/03/02 04:51:59;;;;;;;;;;;;;;;-0.51;58.82;99619.19;67601;1282;1015989;-61
2023/03/02 04:55:02;;;;;;;116.20;43.20;;;;;;;-0.66;58.84;99620.42;67604;1282;1016399;-60
2023/03/02 04:58:04;;;;;;;103.80;42.40;;;;;;;-0.73;58.75;99620.10;67548;1282;1016151;-60
2023/03/02 05:01:07;;;;;;;107.80;41.80;;;;;;;-0.70;58.91;99618.71;67547;1281;1016476;-60
2023/03/02 05:04:09;;;;;;;104.00;44.50;;;;;;;-0.52;58.97;99619.17;67588;1281;1016430;-59
2023/03/02 05:07:12;;;;;;;102.60;44.80;;;;;;;-0.39;58.60;99618.27;67592;1282;1016466;-60
2023/03/02 05:10:15;;;;;;;113.40;44.20;;;;;;;-0.38;57.99;99618.78;67549;1282;1016009;-60
2023/03/02 05:13:17;;;;;;;124.20;47.80;;;;;;;-0.36;58.02;99620.16;67548;1282;1016414;-60
2023/03/02 05:16:19;;;;;;;122.10;49.80;;;;;;;-0.40;57.96;99621.20;67584;1282;1016360;-60
2023/03/02 05:19:22;;;;;;;;;;;;;;;-0.26;58.06;99619.95;67627;1282;1016297;-60
2023/03/02 05:22:24;;;;;;;109.70;45.20;;;;;;;-0.27;57.62;99618.58;67551;1282;1016427;-59
2023/03/02 05:25:27;;;;;;;111.90;45.50;;;;;;;-0.29;57.53;99622.36;67544;1282;1016269;-59
2023/03/02 05:28:29;;;;;;;113.80;45.40;;;;;;;-0.30;57.81;99618.07;67604;1282;1016924;-60
2023/03/02 05:31:33;;;;;;;109.20;44.40;;;;;;;-0.24;57.80;99618.05;67465;1281;1159177;-60
2023/03/02 05:34:36;;;;;;;108.40;43.00;;;;;;;-0.14;57.44;99621.77;67606;1282;1016524;-60
2023/03/02 05:37:41;;;;;;;116.70;45.80;;;;;;;-0.14;57.05;99622.12;67591;1282;1016441;-59
2023/03/02 05:40:44;;;;;;;116.90;44.80;;;;;;;-0.22;57.36;99628.52;67610;1282;1016095;-60
2023/03/02 05:43:46;;;;;;;116.60;46.50;;;;;;;-0.25;57.49;99630.25;67590;1282;1016437;-60
2023/03/02 05:46:48;;;;;;;111.80;44.50;;;;;;;-0.20;57.71;99628.85;67527;1282;1016441;-59
2023/03/02 05:49:53;;;;;;;125.30;47.70;;;;;;;0.01;57.65;99629.44;67515;1282;1016202;-60
2023/03/02 05:52:55;;;;;;;129.60;50.70;;;;;;;0.17;57.05;99631.58;67535;1282;1016544;-60
2023/03/02 05:55:58;;;;;;;132.70;54.90;;;;;;;0.17;57.33;99635.20;67561;1282;1016513;-59
2023/03/02 05:59:00;;;;;;;;;;;;;;;0.21;57.38;99638.45;67608;1282;1016242;-60
2023/03/02 06:02:03;;;;;;;125.00;49.90;;;;;;;0.32;57.18;99638.89;67608;1282;1016199;-59
2023/03/02 06:05:05;;;;;;;122.60;48.40;;;;;;;0.51;57.40;99638.60;67521;1282;1016086;-59
2023/03/02 06:08:08;;;;;;;128.30;50.50;;;;;;;0.65;57.36;99639.36;67551;1282;1016258;-60
2023/03/02 06:11:10;;;;;;;147.70;58.80;;;;;;;0.71;57.39;99647.23;67595;1282;1016166;-61
2023/03/02 06:14:12;;;;;;;174.50;66.90;;;;;;;0.63;57.83;99651.08;67574;1282;1016543;-61
2023/03/02 06:17:15;;;;;;;130.50;53.40;;;;;;;0.68;57.95;99650.19;67572;1282;1016364;-61
2023/03/02 06:20:18;;;;;;;117.30;47.00;;;;;;;0.93;57.97;99652.40;67540;1281;1016221;-60
2023/03/02 06:23:20;;;;;;;105.90;45.40;;;;;;;1.09;58.16;99654.15;67572;1282;1016207;-59
2023/03/02 06:26:23;;;;;;;123.00;54.40;;;;;;;1.39;58.15;99658.17;67587;1282;1016476;-60
2023/03/02 06:29:25;;;;;;;140.30;56.40;;;;;;;1.69;57.73;99662.16;67577;1282;1015749;-59
2023/03/02 06:32:32;;;;;;;173.70;62.90;;;;;;;1.76;57.89;99662.08;67534;1281;1018240;-60
2023/03/02 06:35:35;;;;;;;139.80;53.20;;;;;;;1.99;58.02;99662.83;67593;1282;1016318;-60
2023/03/02 06:38:37;;;;;;;131.90;50.00;;;;;;;2.32;57.86;99659.12;67550;1282;1016422;-61
2023/03/02 06:41:40;;;;;;;;;;;;;;;2.70;57.26;99657.71;67575;1282;1016211;-61
2023/03/02 06:44:42;;;;;;;118.80;46.80;;;;;;;2.72;57.87;99657.16;67599;1282;1016352;-61
2023/03/02 06:47:45;;;;;;;113.10;45.00;;;;;;;2.60;58.56;99655.27;67604;1282;1016416;-60
2023/03/02 06:50:47;;;;;;;118.40;50.00;;;;;;;2.83;58.13;99659.56;67574;1282;1016243;-60
2023/03/02 06:53:49;;;;;;;108.60;46.70;;;;;;;3.40;57.85;99656.86;67550;1282;1016373;-60
2023/03/02 06:56:52;;;;;;;139.80;54.20;;;;;;;3.68;57.62;99658.59;67558;1282;1016141;-60
2023/03/02 06:59:54;;;;;;;159.90;63.60;;;;;;;3.82;57.21;99658.66;67549;1281;1016359;-60
2023/03/02 07:02:57;;;;;;;183.50;68.70;;;;;;;3.94;57.08;99654.61;67590;1282;1016884;-60
2023/03/02 07:05:59;;;;;;;194.60;71.90;;;;;;;4.19;57.50;99656.17;67568;1281;1018656;-60
2023/03/02 07:09:02;;;;;;;188.70;77.80;;;;;;;4.38;57.16;99652.48;67558;1282;1016485;-60
2023/03/02 07:12:04;;;;;;;;;;;;;;;4.54;56.82;99646.20;67580;1282;1016508;-59
2023/03/02 07:15:09;;;;;;;129.60;58.40;;;;;;;4.64;56.37;99643.21;67587;1282;1017407;-60
2023/03/02 07:18:12;;;;;;;132.90;60.00;;;;;;;4.81;56.63;99642.80;67540;1282;1016161;-59
2023/03/02 07:21:14;;;;;;;131.90;57.80;;;;;;;5.08;57.04;99641.97;67539;1282;1016346;-60
2023/03/02 07:24:17;;;;;;;122.40;55.70;;;;;;;5.39;56.81;99639.42;67602;1282;1015890;-60
2023/03/02 07:27:19;;;;;;;124.90;55.70;;;;;;;5.47;56.43;99636.61;67604;1282;1015823;-59
2023/03/02 07:30:21;;;;;;;137.40;64.00;;;;;;;5.71;56.08;99634.23;67592;1282;1016539;-59
2023/03/02 07:33:24;;;;;;;127.70;60.10;;;;;;;6.03;56.11;99630.88;67556;1282;1016009;-60
2023/03/02 07:36:26;;;;;;;123.50;61.70;;;;;;;6.31;55.73;99632.84;67551;1282;1016553;-60
2023/03/02 07:39:29;;;;;;;119.20;53.60;;;;;;;6.48;55.59;99631.45;67603;1282;1016502;-60
2023/03/02 07:42:31;;;;;;;121.70;55.00;;;;;;;6.63;54.60;99633.76;67605;1282;1015744;-60
2023/03/02 07:45:34;;;;;;;123.60;57.20;;;;;;;6.82;54.71;99636.13;67611;1282;1016395;-60
2023/03/02 07:48:36;;;;;;;122.50;56.20;;;;;;;7.06;54.79;99634.80;67555;1282;1016205;-60
2023/03/02 07:51:38;;;;;;;114.20;52.80;;;;;;;7.19;54.97;99636.46;67561;1282;1016782;-60
2023/03/02 07:54:41;;;;;;;120.70;56.20;;;;;;;7.39;54.78;99638.90;67526;1282;1016963;-59
2023/03/02 07:57:43;;;;;;;124.10;54.80;;;;;;;7.37;55.68;99636.73;67577;1281;1016511;-59
2023/03/02 08:00:46;;;;;;;117.10;54.10;;;;;;;7.73;55.83;99634.39;67576;1282;1016343;-60
2023/03/02 08:04:09;;;;;;;108.30;51.80;;;;;;;7.94;56.31;99636.23;67532;1282;1016452;-60
2023/03/02 08:07:11;;;;;;;109.90;52.80;;;;;;;8.29;56.03;99632.67;67586;1282;1016411;-60
2023/03/02 08:10:14;;;;;;;106.50;50.60;;;;;;;8.67;55.30;99625.11;67578;1282;1016446;-59
2023/03/02 08:13:16;;;;;;;105.10;49.70;;;;;;;8.74;54.07;99626.54;67552;1281;1018084;-60
2023/03/02 08:16:19;;;;;;;103.70;49.70;;;;;;;8.60;54.50;99624.14;67555;1282;1016492;-60
2023/03/02 08:19:22;;;;;;;105.30;50.00;;;;;;;8.70;54.73;99624.45;67593;1282;1016738;-60
2023/03/02 08:22:24;;;;;;;107.10;49.80;;;;;;;8.92;54.83;99624.79;67601;1282;1016135;-60
2023/03/02 08:25:27;;;;;;;98.30;49.80;;;;;;;9.14;54.45;99624.75;67502;1282;1016433;-59
2023/03/02 08:28:29;;;;;;;103.30;48.10;;;;;;;9.12;53.85;99630.40;67565;1282;1016676;-60
2023/03/02 08:31:31;;;;;;;98.10;48.60;;;;;;;9.15;53.93;99629.40;67555;1282;1016458;-60
2023/03/02 08:34:34;;;;;;;103.00;48.70;;;;;;;9.09;53.76;99627.59;67577;1282;1016431;-60
2023/03/02 08:37:36;;;;;;;100.20;45.20;;;;;;;8.95;53.44;99622.73;67594;1282;1016422;-60
2023/03/02 08:40:39;;;;;;;83.20;40.80;;;;;;;8.96;53.23;99621.65;67532;1282;1016241;-60
2023/03/02 08:43:41;;;;;;;88.70;42.30;;;;;;;8.73;53.68;99619.44;67560;1282;1016388;-60
2023/03/02 08:46:43;;;;;;;89.10;44.30;;;;;;;8.70;54.15;99616.95;67586;1282;1016916;-60
2023/03/02 08:49:46;;;;;;;84.40;41.00;;;;;;;8.78;54.72;99615.57;67587;1282;1016474;-60
2023/03/02 08:52:48;;;;;;;83.50;39.70;;;;;;;8.95;54.88;99617.52;67543;1282;1016426;-60
2023/03/02 08:55:51;;;;;;;88.40;41.80;;;;;;;9.19;54.35;99611.45;67545;1282;1016408;-60
2023/03/02 08:58:53;;;;;;;83.60;40.40;;;;;;;9.26;53.92;99615.33;67553;1282;1017356;-59
2023/03/02 09:01:56;;;;;;;87.30;41.90;;;;;;;9.35;53.77;99617.18;67538;1281;1017325;-60
2023/03/02 09:04:58;;;;;;;91.00;42.10;;;;;;;9.33;53.72;99615.73;67590;1282;1016512;-59
2023/03/02 09:08:01;;;;;;;90.90;43.30;;;;;;;9.61;53.87;99610.33;67584;1282;1016635;-59
2023/03/02 09:11:06;;;;;;;85.50;41.30;;;;;;;9.98;52.96;99611.61;67584;1282;1016289;-60
2023/03/02 09:14:08;;;;;;;94.50;43.40;;;;;;;10.12;52.54;99614.48;67573;1282;1016295;-59
2023/03/02 09:17:11;;;;;;;88.40;42.90;;;;;;;10.28;51.83;99614.94;67522;1282;1016607;-60
2023/03/02 09:20:14;;;;;;;83.10;39.20;;;;;;;10.18;51.88;99612.27;67571;1281;1016220;-60
2023/03/02 09:23:16;;;;;;;76.70;37.60;;;;;;;10.18;51.21;99613.65;67581;1281;1016128;-60
2023/03/02 09:26:19;;;;;;;72.70;35.90;;;;;;;10.07;51.57;99613.14;67522;1282;1016308;-60
2023/03/02 09:29:21;;;;;;;74.30;37.10;;;;;;;9.73;52.02;99612.58;67531;1281;1016488;-60
2023/03/02 09:32:24;;;;;;;76.10;36.40;;;;;;;9.78;52.59;99608.15;67524;1282;1016509;-60
2023/03/02 09:35:26;;;;;;;78.20;38.00;;;;;;;9.93;52.45;99605.54;67554;1282;1018515;-60
2023/03/02 09:38:29;;;;;;;81.70;37.70;;;;;;;9.97;51.50;99605.91;67583;1281;1016712;-60
2023/03/02 09:41:31;;;;;;;85.90;38.40;;;;;;;10.00;51.79;99607.00;67591;1282;1016285;-60
2023/03/02 09:44:34;;;;;;;77.40;36.50;;;;;;;10.30;51.55;99600.38;67596;1282;1018007;-60
2023/03/02 09:47:37;;;;;;;75.20;36.80;;;;;;;10.47;50.50;99600.80;67571;1281;1016413;-60
2023/03/02 09:50:39;;;;;;;77.10;36.50;;;;;;;10.59;50.72;99599.49;67522;1281;1018952;-60
2023/03/02 09:53:42;;;;;;;78.90;37.60;;;;;;;10.67;50.65;99595.80;67526;1282;1016494;-60
2023/03/02 09:56:44;;;;;;;73.40;36.30;;;;;;;10.87;50.43;99597.27;67541;1282;1016366;-60
2023/03/02 09:59:47;;;;;;;78.20;36.50;;;;;;;10.92;50.27;99593.53;67542;1282;1016402;-60
2023/03/02 10:02:49;;;;;;;74.40;35.90;;;;;;;10.63;50.18;99593.55;67575;1282;1016434;-60
2023/03/02 10:05:52;;;;;;;75.20;35.90;;;;;;;10.43;50.99;99593.83;67561;1281;1016749;-60
2023/03/02 10:08:55;;;;;;;;;;;;;;;10.51;50.84;99591.69;67560;1282;1018720;-60
2023/03/02 10:11:58;;;;;;;79.70;38.50;;;;;;;10.73;51.17;99591.68;67589;1282;1016443;-60
2023/03/02 10:15:00;;;;;;;71.80;37.00;;;;;;;10.72;50.50;99591.34;67570;1271;1016610;-60
2023/03/02 10:18:03;;;;;;;79.40;35.40;;;;;;;10.85;50.87;99590.17;67512;1281;1016447;-60
2023/03/02 10:21:05;;;;;;;71.20;34.10;;;;;;;10.99;50.11;99587.24;67571;1282;1016354;-60
2023/03/02 10:24:07;;;;;;;66.60;33.60;;;;;;;11.14;50.75;99581.71;67540;1282;1016417;-60
2023/03/02 10:27:10;;;;;;;72.80;35.30;;;;;;;11.38;50.07;99584.35;67561;1281;1016446;-60
2023/03/02 10:30:12;;;;;;;71.50;36.70;;;;;;;11.32;49.94;99587.63;67575;1282;1016461;-60
2023/03/02 10:33:15;;;;;;;69.50;36.30;;;;;;;11.45;49.64;99586.27;67524;1282;1016481;-60
2023/03/02 10:36:17;;;;;;;65.10;32.10;;;;;;;11.34;49.34;99582.62;67501;1282;1016470;-60
2023/03/02 10:39:19;;;;;;;67.40;33.20;;;;;;;11.47;50.43;99574.65;67486;1282;1016330;-60
2023/03/02 10:42:22;;;;;;;68.10;34.70;;;;;;;11.81;50.03;99574.73;67565;1282;1016503;-60
2023/03/02 10:45:24;;;;;;;39.80;18.80;;;;;;;12.01;49.46;99564.02;67563;1282;1016452;-60
2023/03/02 10:48:27;;;;;;;48.80;22.80;;;;;;;12.29;49.46;99560.39;67581;1282;1016409;-61
2023/03/02 10:51:29;;;;;;;32.00;15.00;;;;;;;12.68;48.98;99557.11;67546;1282;1016273;-60
2023/03/02 10:54:32;;;;;;;33.50;14.30;;;;;;;12.89;48.94;99556.05;67547;1282;1018197;-60
2023/03/02 10:57:34;;;;;;;31.80;15.20;;;;;;;13.44;48.47;99549.46;67568;1282;1016474;-60
2023/03/02 11:00:57;;;;;;;31.20;13.80;;;;;;;13.78;48.54;99544.38;67570;1282;1016479;-60
2023/03/02 11:03:59;;;;;;;28.10;13.30;;;;;;;14.28;47.66;99538.59;67551;1282;1016506;-60
2023/03/02 11:07:02;;;;;;;32.90;15.30;;;;;;;14.27;46.65;99539.38;67538;1282;1016238;-61
2023/03/02 11:10:06;;;;;;;36.30;16.40;;;;;;;14.25;46.53;99536.85;67534;1282;1016458;-61
2023/03/02 11:13:08;;;;;;;33.00;15.10;;;;;;;14.52;47.20;99537.94;67576;1282;1016411;-61
2023/03/02 11:16:11;;;;;;;34.50;17.00;;;;;;;14.68;47.06;99532.30;67600;1282;1016450;-61
2023/03/02 11:19:13;;;;;;;30.10;13.80;;;;;;;14.93;45.32;99533.95;67558;1282;1016459;-60
2023/03/02 11:22:16;;;;;;;29.50;13.30;;;;;;;14.59;44.87;99529.55;67537;1281;1016401;-61
2023/03/02 11:25:18;;;;;;;27.60;11.70;;;;;;;14.23;44.14;99529.10;67530;1282;1016201;-60
2023/03/02 11:28:20;;;;;;;30.30;13.40;;;;;;;13.69;45.11;99526.34;67591;1282;1018551;-61
2023/03/02 11:31:23;;;;;;;31.00;13.70;;;;;;;13.46;45.56;99519.88;67604;1281;1016482;-61
2023/03/02 11:34:25;;;;;;;29.20;13.20;;;;;;;13.40;45.78;99516.71;67575;1282;1016926;-61
2023/03/02 11:37:28;;;;;;;;;;;;;;;13.73;45.48;99505.55;67556;1281;1016523;-60
2023/03/02 11:40:30;;;;;;;30.80;13.40;;;;;;;14.20;46.08;99499.88;67564;1282;1016569;-60
2023/03/02 11:43:33;;;;;;;31.10;13.50;;;;;;;14.63;45.11;99493.73;67600;1282;1016481;-61
2023/03/02 11:46:35;;;;;;;30.00;14.40;;;;;;;14.64;44.67;99488.40;67604;1281;1016466;-61
2023/03/02 11:49:37;;;;;;;32.50;15.40;;;;;;;14.87;44.36;99494.05;67588;1281;1016448;-61
2023/03/02 11:52:42;;;;;;;31.10;14.70;;;;;;;14.83;43.95;99492.20;67555;1281;1016123;-61
2023/03/02 11:55:47;;;;;;;32.50;14.80;;;;;;;14.67;43.92;99486.11;67547;1281;1016132;-61
2023/03/02 11:58:52;;;;;;;31.70;14.20;;;;;;;14.55;43.95;99486.84;67551;1281;1016973;-61
2023/03/02 12:01:55;;;;;;;28.40;13.50;;;;;;;14.44;42.71;99483.71;67553;1281;1016503;-61
2023/03/02 12:04:58;;;;;;;30.90;13.70;;;;;;;13.99;42.33;99479.26;67580;1282;1016146;-61
2023/03/02 12:08:00;;;;;;;33.50;15.40;;;;;;;13.61;42.75;99474.85;67539;1282;1018333;-61
2023/03/02 12:11:03;;;;;;;30.60;14.20;;;;;;;13.41;43.08;99473.78;67527;1282;1016193;-61
2023/03/02 12:14:06;;;;;;;31.70;14.60;;;;;;;13.49;43.76;99471.88;67599;1282;1016261;-61
2023/03/02 12:17:08;;;;;;;31.30;13.60;;;;;;;13.77;43.89;99466.95;67561;1282;1016473;-61
2023/03/02 12:20:10;;;;;;;28.90;12.80;;;;;;;13.99;43.76;99465.92;67517;1281;1016441;-61
2023/03/02 12:23:13;;;;;;;30.30;13.60;;;;;;;14.03;43.51;99461.27;67560;1282;1016369;-61
2023/03/02 12:26:15;;;;;;;32.80;13.10;;;;;;;13.96;43.07;99457.15;67577;1282;1016376;-61
2023/03/02 12:29:18;;;;;;;31.30;13.40;;;;;;;14.03;43.66;99455.08;67606;1282;1016504;-61
2023/03/02 12:32:20;;;;;;;32.60;14.40;;;;;;;13.95;42.76;99454.23;67572;1282;1016471;-61
2023/03/02 12:35:22;;;;;;;32.80;14.40;;;;;;;13.80;43.05;99452.55;67540;1281;1016794;-61
2023/03/02 12:38:25;;;;;;;30.30;13.70;;;;;;;13.62;43.17;99450.89;67549;1281;1016515;-61
2023/03/02 12:41:29;;;;;;;31.10;13.70;;;;;;;13.72;42.91;99447.42;67571;1281;1016504;-60
2023/03/02 12:44:32;;;;;;;31.70;14.70;;;;;;;13.85;43.16;99444.79;67600;1281;1016055;-60
2023/03/02 12:47:34;;;;;;;31.40;13.80;;;;;;;14.35;43.83;99440.33;67573;1282;1016429;-61
2023/03/02 12:50:37;;;;;;;31.60;14.30;;;;;;;14.86;43.77;99439.42;67534;1282;1016226;-61
2023/03/02 12:53:40;;;;;;;29.40;14.10;;;;;;;15.07;42.09;99434.74;67541;1282;1016320;-61
2023/03/02 12:56:43;;;;;;;32.50;15.30;;;;;;;14.92;42.53;99430.19;67546;1282;1016612;-61
2023/03/02 12:59:45;;;;;;;30.80;13.80;;;;;;;14.85;42.11;99429.91;67569;1282;1016694;-60
2023/03/02 13:02:48;;;;;;;27.60;13.30;;;;;;;14.72;41.69;99421.71;67567;1282;1016441;-61
2023/03/02 13:05:50;;;;;;;33.10;14.10;;;;;;;14.34;42.36;99422.98;67550;1281;1016276;-60
2023/03/02 13:08:53;;;;;;;34.40;14.50;;;;;;;14.22;41.98;99415.85;67547;1282;1016537;-61
2023/03/02 13:11:55;;;;;;;30.00;13.60;;;;;;;14.15;42.39;99410.37;67510;1282;1016415;-61
2023/03/02 13:14:57;;;;;;;33.00;14.30;;;;;;;14.12;42.25;99404.37;67600;1282;1016540;-61
2023/03/02 13:18:00;;;;;;;31.90;13.60;;;;;;;14.19;42.44;99397.40;67620;1282;1016411;-61
2023/03/02 13:21:02;;;;;;;31.00;13.90;;;;;;;14.36;41.89;99398.25;67542;1281;1016484;-61
2023/03/02 13:24:07;;;;;;;;;;;;;;;14.36;41.93;99391.52;67546;1282;1016543;-60
2023/03/02 13:27:09;;;;;;;33.20;13.70;;;;;;;14.27;41.81;99390.57;67539;1282;1016298;-61
2023/03/02 13:30:12;;;;;;;32.20;13.80;;;;;;;14.45;42.18;99384.45;67573;1281;1015829;-61
2023/03/02 13:33:14;;;;;;;29.70;14.00;;;;;;;14.43;42.00;99373.98;67581;1281;1016681;-60
2023/03/02 13:36:17;;;;;;;33.00;14.80;;;;;;;14.57;42.21;99372.17;67531;1282;1016382;-61
2023/03/02 13:39:19;;;;;;;29.10;13.10;;;;;;;14.79;42.29;99365.55;67502;1282;1016579;-61
2023/03/02 13:42:22;;;;;;;30.40;13.80;;;;;;;15.17;41.87;99368.16;67578;1282;1016317;-62
2023/03/02 13:45:24;;;;;;;29.70;13.30;;;;;;;15.35;41.51;99364.46;67531;1282;1016125;-61